Dades meteomassalio
Diari Summary for Gener 25, 2018 Units:  English    Metric   Both
« Previous Day
Next Day »
Diari Semanal Mensual Anual Personalitzat
  Maxima: Minima: Mijana:
Temperatura: TemperatureC °F -0.6 °F 5.8 °F
Rosada: DewpointC °F -1.7 °F 4.2 °F
Humitat: Humidity % 74 % 89 %
Velocitat del vent: WindSpeedKMH mph 0.0 mph 4.2 mph
Racha vent: WindSpeedGustKMH mph - -
Vent:- - SSE
Pressio: PressurehPa in 1018.2 in -
Pluja: 4.3 in    
Historical Graphs
 
 
Tabular Data for Gener 25, 2018
Time Temperature Dew Point Pressure Wind Wind Speed Wind Gust Humidity Rainfall Rate (Hourly) solar Conditions
TemperatureC °F DewpointC °F PressurehPa in Calm     Humidity % HourlyPrecipMM in SolarRadiationWatts/m^2 W/m2 Conditions
00:03 1.7 °F 0.3 °F 1027.7 in Calm     91 % 0.0 in 0.0 W/m2 RA
00:08 1.1 °F -0.2 °F 1027.7 in Calm     91 % 0.0 in 0.0 W/m2 CLR
00:13 1.1 °F -0.2 °F 1027.7 in Calm     91 % 0.0 in 0.0 W/m2 CLR
00:18 1.1 °F -0.2 °F 1027.7 in Calm     91 % 0.0 in 0.0 W/m2 CLR
00:23 1.7 °F 0.3 °F 1027.7 in Calm     91 % 0.0 in 0.0 W/m2 CLR
00:28 1.1 °F -0.2 °F 1027.7 in Calm     91 % 0.0 in 0.0 W/m2 CLR
00:33 1.1 °F -0.2 °F 1027.7 in Calm     91 % 0.0 in 0.0 W/m2 CLR
00:38 1.1 °F -0.2 °F 1027.3 in Calm     91 % 0.0 in 0.0 W/m2 CLR
00:43 1.1 °F -0.2 °F 1027.3 in Calm     91 % 0.0 in 0.0 W/m2 CLR
00:48 1.1 °F -0.2 °F 1027.3 in Calm     91 % 0.0 in 0.0 W/m2 CLR
00:53 1.1 °F -0.1 °F 1027.3 in Calm     92 % 0.0 in 0.0 W/m2 CLR
00:58 1.1 °F -0.1 °F 1027.3 in Calm     92 % 0.0 in 0.0 W/m2 CLR
01:03 1.1 °F -0.1 °F 1027.3 in Calm     92 % 0.0 in 0.0 W/m2 CLR
01:08 1.1 °F -0.1 °F 1027.3 in Calm     92 % 0.0 in 0.0 W/m2 CLR
01:13 0.6 °F -0.7 °F 1027.3 in Calm     91 % 0.0 in 0.0 W/m2 CLR
01:18 0.6 °F -0.7 °F 1027.0 in Calm     91 % 0.0 in 0.0 W/m2 CLR
01:23 0.6 °F -0.7 °F 1027.0 in Calm     91 % 0.0 in 0.0 W/m2 CLR
01:28 0.6 °F -0.7 °F 1027.0 in Calm     91 % 0.0 in 0.0 W/m2 CLR
01:33 0.6 °F -0.6 °F 1027.0 in Calm     92 % 0.0 in 0.0 W/m2 CLR
01:38 0.6 °F -0.6 °F 1026.6 in Calm     92 % 0.0 in 0.0 W/m2 CLR
01:43 0.6 °F -0.6 °F 1026.6 in Calm     92 % 0.0 in 0.0 W/m2 CLR
01:48 1.1 °F -0.1 °F 1026.6 in Calm     92 % 0.0 in 0.0 W/m2 CLR
01:53 1.1 °F -0.1 °F 1026.6 in Calm     92 % 0.0 in 0.0 W/m2 CLR
01:58 1.1 °F -0.1 °F 1026.6 in Calm     92 % 0.0 in 0.0 W/m2 CLR
02:03 0.6 °F -0.6 °F 1026.6 in Calm     92 % 0.0 in 0.0 W/m2 CLR
02:08 0.6 °F -0.7 °F 1026.6 in Calm     91 % 0.0 in 0.0 W/m2 CLR
02:13 0.6 °F -0.7 °F 1026.6 in Calm     91 % 0.0 in 0.0 W/m2 CLR
02:18 0.6 °F -0.6 °F 1026.6 in Calm     92 % 0.0 in 0.0 W/m2 CLR
02:23 0.6 °F -0.6 °F 1026.6 in Calm     92 % 0.0 in 0.0 W/m2 CLR
02:28 1.1 °F -0.1 °F 1026.6 in Calm     92 % 0.0 in 0.0 W/m2 CLR
02:33 1.1 °F -0.1 °F 1026.6 in Calm     92 % 0.0 in 0.0 W/m2 CLR
02:38 1.1 °F -0.1 °F 1026.6 in Calm     92 % 0.0 in 0.0 W/m2 CLR
02:43 1.1 °F -0.1 °F 1026.6 in Calm     92 % 0.0 in 0.0 W/m2 CLR
02:48 0.6 °F -0.6 °F 1026.6 in Calm     92 % 0.0 in 0.0 W/m2 CLR
02:53 0.6 °F -0.6 °F 1026.6 in Calm     92 % 0.0 in 0.0 W/m2 CLR
02:58 1.1 °F -0.1 °F 1026.6 in Calm     92 % 0.0 in 0.0 W/m2 CLR
03:03 0.6 °F -0.6 °F 1026.6 in Calm     92 % 0.0 in 0.0 W/m2 CLR
03:08 0.6 °F -0.6 °F 1026.6 in Calm     92 % 0.0 in 0.0 W/m2 CLR
03:13 0.0 °F -1.2 °F 1026.6 in Calm     92 % 0.0 in 0.0 W/m2 CLR
03:18 0.0 °F -1.2 °F 1026.3 in Calm     92 % 0.0 in 0.0 W/m2 CLR
03:23 0.0 °F -1.2 °F 1026.3 in Calm     92 % 0.0 in 0.0 W/m2 CLR
03:28 0.0 °F -1.2 °F 1026.3 in Calm     92 % 0.0 in 0.0 W/m2 CLR
03:33 0.0 °F -1.2 °F 1026.3 in Calm     92 % 0.0 in 0.0 W/m2 CLR
03:38 0.0 °F -1.2 °F 1026.3 in Calm     92 % 0.0 in 0.0 W/m2 CLR
03:43 0.0 °F -1.2 °F 1026.3 in Calm     92 % 0.0 in 0.0 W/m2 CLR
03:48 -0.6 °F -1.6 °F 1026.3 in Calm     93 % 0.0 in 0.0 W/m2 CLR
03:54 -0.6 °F -1.7 °F 1026.3 in Calm     92 % 0.0 in 0.0 W/m2 CLR
03:59 -0.6 °F -1.7 °F 1026.0 in Calm     92 % 0.0 in 0.0 W/m2 CLR
04:04 -0.6 °F -1.7 °F 1026.0 in Calm     92 % 0.0 in 0.0 W/m2 CLR
04:09 -0.6 °F -1.7 °F 1026.0 in Calm     92 % 0.0 in 0.0 W/m2 CLR
04:14 -0.6 °F -1.7 °F 1026.0 in Calm     92 % 0.0 in 0.0 W/m2 CLR
04:19 0.0 °F -1.2 °F 1025.6 in Calm     92 % 0.0 in 0.0 W/m2 CLR
04:24 0.0 °F -1.2 °F 1025.6 in Calm     92 % 0.0 in 0.0 W/m2 CLR
04:29 0.0 °F -1.0 °F 1025.6 in Calm     93 % 0.0 in 0.0 W/m2 CLR
04:34 0.0 °F -1.0 °F 1025.6 in Calm     93 % 0.0 in 0.0 W/m2 CLR
04:39 0.0 °F -1.0 °F 1025.6 in Calm     93 % 0.0 in 0.0 W/m2 CLR
04:44 0.0 °F -1.0 °F 1025.6 in Calm     93 % 0.0 in 0.0 W/m2 CLR
04:49 0.0 °F -1.2 °F 1025.3 in Calm     92 % 0.0 in 0.0 W/m2 CLR
04:54 0.0 °F -1.2 °F 1025.3 in Calm     92 % 0.0 in 0.0 W/m2 CLR
04:59 0.0 °F -1.2 °F 1025.3 in Calm     92 % 0.0 in 0.0 W/m2 CLR
05:04 0.0 °F -1.0 °F 1025.3 in Calm     93 % 0.0 in 0.0 W/m2 CLR
05:09 0.0 °F -1.0 °F 1025.3 in Calm     93 % 0.0 in 0.0 W/m2 CLR
05:14 0.0 °F -1.0 °F 1025.3 in Calm     93 % 0.0 in 0.0 W/m2 CLR
05:19 0.0 °F -1.0 °F 1025.3 in Calm     93 % 0.0 in 0.0 W/m2 CLR
05:24 0.0 °F -1.0 °F 1025.3 in Calm     93 % 0.0 in 0.0 W/m2 CLR
05:29 0.0 °F -1.0 °F 1025.3 in Calm     93 % 0.0 in 0.0 W/m2 CLR
05:34 0.0 °F -1.0 °F 1024.9 in Calm     93 % 0.0 in 0.0 W/m2 CLR
05:39 0.0 °F -1.0 °F 1024.9 in Calm     93 % 0.0 in 0.0 W/m2 CLR
05:44 0.0 °F -1.0 °F 1024.9 in Calm     93 % 0.0 in 0.0 W/m2 CLR
05:49 0.6 °F -0.4 °F 1025.3 in Calm     93 % 0.0 in 0.0 W/m2 CLR
05:54 1.1 °F 0.1 °F 1024.9 in Calm     93 % 0.0 in 0.0 W/m2 CLR
05:59 1.1 °F 0.1 °F 1024.9 in Calm     93 % 0.3 in 0.0 W/m2 RA
06:04 1.1 °F 0.1 °F 1024.9 in Calm     93 % 0.3 in 0.0 W/m2
06:09 1.1 °F 0.1 °F 1024.9 in Calm     93 % 0.3 in 0.0 W/m2 CLR
06:14 1.1 °F 0.1 °F 1024.9 in Calm     93 % 0.3 in 0.0 W/m2 CLR
06:19 1.1 °F 0.1 °F 1024.9 in Calm     93 % 0.3 in 0.0 W/m2 CLR
06:24 1.1 °F 0.1 °F 1024.9 in Calm     93 % 0.3 in 0.0 W/m2 CLR
06:29 1.1 °F 0.1 °F 1024.6 in Calm     93 % 0.3 in 0.0 W/m2 CLR
06:34 0.6 °F -0.4 °F 1024.9 in Calm     93 % 0.3 in 0.0 W/m2 CLR
06:39 0.6 °F -0.4 °F 1024.9 in Calm     93 % 0.3 in 0.0 W/m2 CLR
06:44 0.6 °F -0.4 °F 1024.9 in Calm     93 % 0.3 in 0.0 W/m2 CLR
06:49 0.0 °F -1.0 °F 1024.9 in Calm     93 % 0.3 in 0.0 W/m2 CLR
06:54 0.6 °F -0.4 °F 1024.9 in Calm     93 % 0.3 in 0.0 W/m2 CLR
06:59 0.6 °F -0.4 °F 1024.9 in Calm     93 % 0.0 in 0.0 W/m2 CLR
07:04 0.0 °F -1.0 °F 1024.6 in Calm     93 % 0.0 in 0.0 W/m2 CLR
07:09 0.0 °F -1.0 °F 1024.6 in Calm     93 % 0.0 in 0.0 W/m2 CLR
07:14 0.0 °F -1.0 °F 1024.6 in Calm     93 % 0.0 in 0.0 W/m2 CLR
07:19 0.0 °F -1.0 °F 1024.6 in Calm     93 % 0.0 in 0.0 W/m2 CLR
07:24 0.0 °F -1.0 °F 1024.6 in Calm     93 % 0.0 in 0.0 W/m2 CLR
07:29 0.0 °F -1.0 °F 1024.6 in Calm     93 % 0.0 in 0.0 W/m2 CLR
07:34 0.0 °F -1.0 °F 1024.6 in Calm     93 % 0.0 in 0.0 W/m2 CLR
07:39 0.0 °F -1.0 °F 1024.6 in Calm     93 % 0.0 in 0.0 W/m2 CLR
07:44 0.0 °F -1.0 °F 1024.6 in Calm     93 % 0.0 in 0.0 W/m2 CLR
07:49 0.0 °F -1.0 °F 1024.6 in Calm     93 % 0.0 in 0.0 W/m2 CLR
07:54 0.0 °F -1.0 °F 1024.6 in Calm     93 % 0.0 in 0.0 W/m2 CLR
07:59 0.0 °F -1.0 °F 1024.6 in Calm     93 % 0.0 in 0.0 W/m2 CLR
08:04 0.0 °F -1.0 °F 1024.6 in Calm     93 % 0.0 in 0.0 W/m2 CLR
08:09 0.0 °F -1.0 °F 1024.6 in Calm     93 % 0.0 in 0.0 W/m2 OVC
08:14 0.0 °F -1.0 °F 1024.6 in Calm     93 % 0.0 in 0.0 W/m2 OVC
08:19 0.0 °F -1.0 °F 1024.6 in Calm     93 % 0.0 in 5.0 W/m2 OVC
08:24 0.0 °F -1.0 °F 1024.3 in Calm     93 % 0.0 in 9.0 W/m2 BKN
08:29 0.0 °F -1.0 °F 1024.6 in Calm     93 % 0.0 in 14.0 W/m2 BKN
08:34 0.0 °F -1.0 °F 1024.6 in Calm     93 % 0.0 in 19.0 W/m2 BKN
08:39 0.0 °F -1.0 °F 1024.6 in Calm     93 % 0.0 in 30.0 W/m2 BKN
08:44 0.0 °F -1.0 °F 1024.3 in Calm     93 % 0.0 in 39.0 W/m2 BKN
08:49 0.0 °F -1.0 °F 1024.3 in Calm     93 % 0.0 in 46.0 W/m2 BKN
08:54 0.0 °F -1.0 °F 1024.3 in Calm     93 % 0.0 in 47.0 W/m2 SCT
08:59 0.6 °F -0.4 °F 1024.3 in Calm     93 % 0.0 in 44.0 W/m2 BKN
09:04 0.6 °F -0.4 °F 1024.3 in Calm     93 % 0.0 in 49.0 W/m2 SCT
09:09 0.6 °F -0.4 °F 1024.3 in Calm     93 % 0.0 in 56.0 W/m2 SCT
09:14 0.6 °F -0.4 °F 1024.3 in Calm     93 % 0.0 in 65.0 W/m2 SCT
09:19 0.6 °F -0.4 °F 1024.3 in Calm     93 % 0.0 in 72.0 W/m2 SCT
09:24 1.1 °F 0.3 °F 1024.3 in Calm     94 % 0.0 in 77.0 W/m2 FEW
09:29 1.1 °F 0.3 °F 1024.3 in Calm     94 % 0.0 in 79.0 W/m2 FEW
09:34 1.1 °F 0.1 °F 1024.3 in Calm     93 % 0.0 in 79.0 W/m2 FEW
09:39 1.7 °F 0.8 °F 1024.3 in Calm     94 % 0.0 in 81.0 W/m2 FEW
09:45 1.7 °F 0.8 °F 1024.3 in Calm     94 % 0.0 in 93.0 W/m2 FEW
09:50 1.7 °F 0.8 °F 1024.3 in Calm     94 % 0.0 in 100.0 W/m2 CLR
09:55 2.2 °F 1.2 °F 1023.9 in Calm     93 % 0.0 in 109.0 W/m2 CLR
10:00 2.2 °F 1.3 °F 1024.3 in Calm     94 % 0.0 in 105.0 W/m2 CLR
10:05 2.2 °F 1.3 °F 1024.3 in Calm     94 % 0.0 in 102.0 W/m2 CLR
10:10 2.8 °F 1.9 °F 1023.9 in Calm     94 % 0.0 in 102.0 W/m2 CLR
10:15 2.8 °F 1.9 °F 1023.9 in Calm     94 % 0.0 in 102.0 W/m2 CLR
10:20 2.8 °F 1.9 °F 1023.9 in Calm     94 % 0.0 in 114.0 W/m2 CLR
10:25 3.3 °F 2.4 °F 1023.9 in Calm     94 % 0.0 in 120.0 W/m2 CLR
10:30 3.9 °F 3.0 °F 1023.9 in Calm     94 % 0.0 in 128.0 W/m2 CLR
10:35 3.9 °F 3.0 °F 1023.9 in Calm     94 % 0.0 in 116.0 W/m2 CLR
10:40 3.9 °F 3.0 °F 1023.9 in Calm     94 % 0.0 in 114.0 W/m2 CLR
10:45 4.4 °F 3.6 °F 1023.6 in Calm     94 % 0.0 in 148.0 W/m2 CLR
10:50 4.4 °F 3.6 °F 1023.6 in Calm     94 % 0.0 in 202.0 W/m2 CLR
10:55 4.4 °F 3.6 °F 1023.6 in Calm     94 % 0.0 in 211.0 W/m2 CLR
11:00 5.0 °F 4.1 °F 1023.6 in Calm     94 % 0.0 in 218.0 W/m2 CLR
11:05 5.0 °F 4.1 °F 1023.6 in Calm     94 % 0.0 in 223.0 W/m2 CLR
11:10 5.6 °F 4.7 °F 1023.6 in Calm     94 % 0.0 in 357.0 W/m2 CLR
11:15 6.1 °F 5.2 °F 1023.2 in Calm     94 % 0.0 in 281.0 W/m2 CLR
11:20 6.1 °F 5.2 °F 1023.6 in Calm     94 % 0.0 in 413.0 W/m2 CLR
11:25 6.7 °F 5.8 °F 1023.2 in Calm     94 % 0.0 in 411.0 W/m2 CLR
11:30 6.7 °F 5.8 °F 1023.2 in Calm     94 % 0.0 in 338.0 W/m2 CLR
11:35 7.2 °F 6.3 °F 1023.2 in Calm     94 % 0.0 in 606.0 W/m2 CLR
11:40 7.8 °F 6.9 °F 1023.2 in Calm     94 % 0.0 in 548.0 W/m2 CLR
11:45 8.3 °F 7.4 °F 1022.9 in Calm     94 % 0.0 in 543.0 W/m2 CLR
11:50 8.3 °F 7.4 °F 1022.9 in Calm     94 % 0.0 in 399.0 W/m2 CLR
11:55 8.9 °F 8.0 °F 1022.9 in Calm     94 % 0.0 in 316.0 W/m2 CLR
12:00 8.9 °F 8.0 °F 1022.9 in NE 4.8 mph 4.8 mph 94 % 0.0 in 276.0 W/m2 CLR
12:05 8.9 °F 7.8 °F 1022.6 in Calm     93 % 0.0 in 341.0 W/m2 CLR
12:10 8.9 °F 7.8 °F 1022.6 in ENE 3.7 mph 3.7 mph 93 % 0.0 in 441.0 W/m2 CLR
12:15 9.4 °F 8.4 °F 1022.6 in Calm     93 % 0.0 in 445.0 W/m2 CLR
12:20 9.4 °F 8.4 °F 1022.2 in ENE 5.6 mph 5.6 mph 93 % 0.0 in 454.0 W/m2 CLR
12:25 9.4 °F 8.2 °F 1022.2 in East 5.6 mph 5.6 mph 92 % 0.0 in 443.0 W/m2 CLR
12:30 9.4 °F 8.1 °F 1021.9 in East 3.7 mph 3.7 mph 91 % 0.0 in 345.0 W/m2 CLR
12:35 10.0 °F 8.6 °F 1021.9 in ENE 5.6 mph 5.6 mph 91 % 0.0 in 341.0 W/m2 CLR
12:40 10.0 °F 8.4 °F 1021.6 in Calm     90 % 0.0 in 388.0 W/m2 CLR
12:45 10.6 °F 9.0 °F 1021.6 in Calm     90 % 0.0 in 390.0 W/m2 CLR
12:50 10.6 °F 8.8 °F 1021.6 in NE 1.9 mph 1.9 mph 89 % 0.0 in 413.0 W/m2 CLR
12:55 10.6 °F 8.8 °F 1021.6 in ENE 1.9 mph 1.9 mph 89 % 0.0 in 454.0 W/m2 CLR
13:00 11.1 °F 9.1 °F 1021.6 in NE 7.4 mph 7.4 mph 87 % 0.0 in 336.0 W/m2 CLR
13:05 11.1 °F 8.8 °F 1021.2 in NE 3.7 mph 3.7 mph 86 % 0.0 in 471.0 W/m2 CLR
13:10 11.7 °F 9.4 °F 1021.2 in ENE 5.6 mph 5.6 mph 86 % 0.0 in 418.0 W/m2 CLR
13:15 11.7 °F 9.1 °F 1020.9 in NE 3.7 mph 3.7 mph 84 % 0.0 in 369.0 W/m2 CLR
13:20 11.7 °F 9.1 °F 1020.9 in ENE 5.6 mph 5.6 mph 84 % 0.0 in 329.0 W/m2 CLR
13:25 11.7 °F 8.9 °F 1020.9 in ENE 12.9 mph 12.9 mph 83 % 0.0 in 313.0 W/m2 CLR
13:30 11.7 °F 8.9 °F 1020.9 in NE 7.4 mph 7.4 mph 83 % 0.0 in 353.0 W/m2 CLR
13:35 11.7 °F 9.1 °F 1020.5 in Calm     84 % 0.0 in 367.0 W/m2 CLR
13:40 11.7 °F 8.9 °F 1020.5 in ENE 6.4 mph 6.4 mph 83 % 0.0 in 380.0 W/m2 CLR
13:45 11.7 °F 8.9 °F 1020.5 in East 9.3 mph 9.3 mph 83 % 0.0 in 332.0 W/m2 CLR
13:50 11.7 °F 8.7 °F 1020.2 in ENE 5.6 mph 5.6 mph 82 % 0.0 in 281.0 W/m2 CLR
13:56 11.7 °F 8.7 °F 1020.2 in ENE 9.3 mph 9.3 mph 82 % 0.0 in 313.0 W/m2 CLR
14:01 11.1 °F 8.2 °F 1019.9 in East 13.0 mph 13.0 mph 82 % 0.0 in 301.0 W/m2 CLR
14:06 11.1 °F 8.3 °F 1019.9 in ENE 6.4 mph 9.5 mph 83 % 0.0 in 341.0 W/m2 CLR
14:11 11.7 °F 8.9 °F 1019.9 in East 7.4 mph 7.4 mph 83 % 0.0 in 345.0 W/m2 CLR
14:16 11.7 °F 8.7 °F 1019.5 in ENE 7.4 mph 7.4 mph 82 % 0.0 in 294.0 W/m2 CLR
14:21 11.7 °F 8.9 °F 1019.5 in ENE 5.6 mph   83 % 0.0 in 304.0 W/m2 CLR
14:26 11.7 °F 8.7 °F 1019.5 in ENE 9.7 mph 9.7 mph 82 % 0.0 in 258.0 W/m2 CLR
14:31 11.7 °F 8.7 °F 1019.5 in ENE 9.3 mph 9.3 mph 82 % 0.0 in 260.0 W/m2 CLR
14:36 11.7 °F 8.7 °F 1019.5 in NE 3.7 mph   82 % 0.0 in 378.0 W/m2 CLR
14:41 12.2 °F 9.2 °F 1019.2 in ENE 3.7 mph 3.9 mph 82 % 0.0 in 334.0 W/m2 CLR
14:46 12.2 °F 9.1 °F 1019.2 in East 7.4 mph 7.4 mph 81 % 0.0 in 436.0 W/m2 CLR
14:51 12.8 °F 9.6 °F 1019.2 in ENE 9.7 mph 9.7 mph 81 % 0.0 in 325.0 W/m2 CLR
14:56 12.8 °F 9.4 °F 1019.2 in ENE 13.0 mph 13.0 mph 80 % 0.0 in 420.0 W/m2 CLR
15:01 12.8 °F 9.4 °F 1019.2 in NE 14.8 mph 14.8 mph 80 % 0.0 in 374.0 W/m2 CLR
15:06 13.3 °F 9.8 °F 1018.8 in ENE 9.3 mph 9.3 mph 79 % 0.0 in 427.0 W/m2 CLR
15:11 13.3 °F 9.8 °F 1018.8 in NNE 5.6 mph 5.6 mph 79 % 0.0 in 446.0 W/m2 CLR
15:16 13.3 °F 9.8 °F 1018.8 in Calm     79 % 0.0 in 292.0 W/m2 CLR
15:21 13.9 °F 10.1 °F 1018.8 in NE 9.3 mph 9.3 mph 78 % 0.0 in 353.0 W/m2 CLR
15:26 13.3 °F 9.6 °F 1018.8 in Calm     78 % 0.0 in 355.0 W/m2 CLR
15:31 13.3 °F 9.2 °F 1018.5 in Calm     76 % 0.0 in 229.0 W/m2 CLR
15:36 13.3 °F 9.4 °F 1018.5 in East 7.4 mph 7.4 mph 77 % 0.0 in 255.0 W/m2 CLR
15:41 13.9 °F 9.7 °F 1018.5 in NE 7.4 mph 7.4 mph 76 % 0.0 in 214.0 W/m2 CLR
15:46 13.3 °F 9.4 °F 1018.5 in ENE 5.6 mph 5.6 mph 77 % 0.0 in 362.0 W/m2 CLR
15:51 13.9 °F 9.9 °F 1018.5 in ESE 5.6 mph 5.6 mph 77 % 0.0 in 343.0 W/m2 CLR
15:56 14.4 °F 10.1 °F 1018.2 in ESE 14.8 mph 14.8 mph 75 % 0.0 in 225.0 W/m2 CLR
16:01 13.9 °F 9.3 °F 1018.2 in ESE 11.1 mph 11.1 mph 74 % 0.0 in 227.0 W/m2 CLR
16:06 13.9 °F 9.3 °F 1018.2 in East 14.8 mph 14.8 mph 74 % 0.0 in 302.0 W/m2 CLR
16:11 13.9 °F 9.3 °F 1018.2 in ESE 9.3 mph 9.3 mph 74 % 0.0 in 207.0 W/m2 CLR
16:16 13.9 °F 9.3 °F 1018.2 in ENE 9.3 mph 9.3 mph 74 % 0.0 in 223.0 W/m2 CLR
16:21 13.9 °F 9.3 °F 1018.5 in NE 18.5 mph 18.5 mph 74 % 0.0 in 134.0 W/m2 CLR
16:26 13.9 °F 9.6 °F 1018.5 in NE 18.5 mph 18.5 mph 75 % 0.0 in 107.0 W/m2 CLR
16:31 13.3 °F 9.0 °F 1018.2 in NE 5.6 mph 5.6 mph 75 % 0.0 in 111.0 W/m2 CLR
16:36 13.3 °F 9.2 °F 1018.5 in NNE 9.3 mph 9.3 mph 76 % 0.0 in 109.0 W/m2 CLR
16:41 12.8 °F 8.8 °F 1018.5 in North 14.8 mph 14.8 mph 77 % 0.0 in 95.0 W/m2 CLR
16:46 12.8 °F 9.2 °F 1018.5 in NNE 18.5 mph 18.5 mph 79 % 0.0 in 91.0 W/m2 CLR
16:51 12.2 °F 8.9 °F 1018.5 in NNE 19.3 mph 19.3 mph 80 % 0.0 in 86.0 W/m2 CLR
16:56 11.7 °F 8.7 °F 1018.5 in North 14.8 mph 14.8 mph 82 % 0.0 in 79.0 W/m2 CLR
17:01 11.7 °F 8.7 °F 1018.5 in NNE 16.7 mph 16.7 mph 82 % 0.0 in 72.0 W/m2 FEW
17:06 11.1 °F 8.3 °F 1018.5 in Calm     83 % 0.0 in 67.0 W/m2 FEW
17:11 11.1 °F 8.5 °F 1018.5 in Calm     84 % 0.0 in 56.0 W/m2 SCT
17:16 11.1 °F 8.5 °F 1018.5 in Calm     84 % 0.0 in 51.0 W/m2 SCT
17:21 11.1 °F 8.5 °F 1018.5 in North 13.0 mph 13.0 mph 84 % 0.0 in 47.0 W/m2 SCT
17:26 11.1 °F 8.5 °F 1018.5 in Calm     84 % 0.0 in 37.0 W/m2 BKN
17:31 10.6 °F 7.9 °F 1018.5 in Calm     84 % 0.0 in 26.0 W/m2 BKN
17:36 10.6 °F 8.1 °F 1018.5 in Calm     85 % 0.0 in 21.0 W/m2 BKN
17:41 10.6 °F 8.1 °F 1018.2 in Calm     85 % 0.0 in 19.0 W/m2 BKN
17:46 10.6 °F 8.1 °F 1018.2 in Calm     85 % 0.0 in 14.0 W/m2 BKN
17:51 10.6 °F 8.1 °F 1018.2 in Calm     85 % 0.0 in 11.0 W/m2 BKN
17:56 10.0 °F 7.8 °F 1018.5 in Calm     86 % 0.0 in 7.0 W/m2 BKN
18:01 10.0 °F 7.8 °F 1018.5 in Calm     86 % 0.0 in 5.0 W/m2 OVC
18:06 10.0 °F 7.9 °F 1018.5 in Calm     87 % 0.0 in 0.0 W/m2 OVC
18:17 9.4 °F 7.4 °F 1018.5 in Calm     87 % 0.0 in 0.0 W/m2 CLR
18:22 9.4 °F 7.4 °F 1018.5 in Calm     87 % 0.0 in 0.0 W/m2 CLR
18:27 9.4 °F 7.4 °F 1018.5 in Calm     87 % 0.0 in 0.0 W/m2 CLR
18:32 8.9 °F 6.8 °F 1018.5 in Calm     87 % 0.0 in 0.0 W/m2 CLR
18:37 8.9 °F 6.8 °F 1018.5 in Calm     87 % 0.0 in 0.0 W/m2 CLR
18:42 8.9 °F 6.8 °F 1018.5 in Calm     87 % 0.0 in 0.0 W/m2 CLR
18:47 8.9 °F 6.8 °F 1018.5 in Calm     87 % 0.0 in 0.0 W/m2 CLR
18:52 8.9 °F 7.0 °F 1018.5 in Calm     88 % 0.0 in 0.0 W/m2 CLR
18:57 8.9 °F 7.0 °F 1018.5 in Calm     88 % 0.0 in 0.0 W/m2 CLR
19:02 8.9 °F 7.0 °F 1018.5 in Calm     88 % 0.0 in 0.0 W/m2 CLR
19:07 8.9 °F 7.0 °F 1018.5 in Calm     88 % 0.0 in 0.0 W/m2 CLR
19:12 8.9 °F 7.0 °F 1018.5 in Calm     88 % 0.0 in 0.0 W/m2 CLR
19:17 8.9 °F 7.0 °F 1018.5 in Calm     88 % 0.0 in 0.0 W/m2 CLR
19:22 8.3 °F 6.4 °F 1018.8 in Calm     88 % 0.0 in 0.0 W/m2 CLR
19:27 8.3 °F 6.4 °F 1018.8 in Calm     88 % 0.0 in 0.0 W/m2 CLR
19:33 8.3 °F 6.4 °F 1018.5 in Calm     88 % 0.0 in 0.0 W/m2 CLR
19:38 8.3 °F 6.6 °F 1018.8 in Calm     89 % 0.0 in 0.0 W/m2 CLR
19:43 8.3 °F 6.4 °F 1018.8 in Calm     88 % 0.0 in 0.0 W/m2 CLR
19:48 8.3 °F 6.4 °F 1018.8 in Calm     88 % 0.0 in 0.0 W/m2 CLR
19:53 8.9 °F 7.2 °F 1018.8 in Calm     89 % 0.0 in 0.0 W/m2 CLR
19:58 8.9 °F 7.2 °F 1018.8 in NNW 14.8 mph 14.8 mph 89 % 0.0 in 0.0 W/m2 CLR
20:03 8.9 °F 7.2 °F 1018.8 in NNW 4.8 mph 4.8 mph 89 % 0.0 in 0.0 W/m2 CLR
20:08 9.4 °F 7.7 °F 1018.8 in North 18.5 mph 18.5 mph 89 % 0.0 in 0.0 W/m2 CLR
20:13 9.4 °F 7.7 °F 1019.2 in NNW 18.5 mph 18.5 mph 89 % 0.0 in 0.0 W/m2 CLR
20:18 9.4 °F 7.7 °F 1019.2 in NNW 18.5 mph 18.5 mph 89 % 0.0 in 0.0 W/m2 CLR
20:23 9.4 °F 7.7 °F 1019.2 in North 18.5 mph 18.5 mph 89 % 0.0 in 0.0 W/m2 CLR
20:28 9.4 °F 7.7 °F 1019.2 in North 18.5 mph 18.5 mph 89 % 0.0 in 0.0 W/m2 CLR
20:33 9.4 °F 7.9 °F 1018.8 in NNW 20.9 mph 20.9 mph 90 % 0.0 in 0.0 W/m2 CLR
20:38 9.4 °F 7.7 °F 1019.2 in NNW 18.5 mph 18.5 mph 89 % 0.0 in 0.0 W/m2 CLR
20:43 9.4 °F 7.9 °F 1019.2 in North 22.2 mph 22.2 mph 90 % 0.0 in 0.0 W/m2 CLR
20:48 9.4 °F 7.9 °F 1019.2 in NNW 18.5 mph 18.5 mph 90 % 0.0 in 0.0 W/m2 CLR
20:53 9.4 °F 7.9 °F 1019.2 in North 18.5 mph 18.5 mph 90 % 0.0 in 0.0 W/m2 CLR
20:58 9.4 °F 7.9 °F 1018.8 in NNW 18.5 mph 18.5 mph 90 % 0.0 in 0.0 W/m2 CLR
21:03 9.4 °F 7.9 °F 1018.8 in NNW 14.8 mph 14.8 mph 90 % 0.0 in 0.0 W/m2 CLR
21:08 9.4 °F 7.9 °F 1018.8 in North 16.7 mph 16.7 mph 90 % 0.0 in 0.0 W/m2 CLR
21:13 9.4 °F 7.9 °F 1018.8 in NNW 13.0 mph 13.0 mph 90 % 0.0 in 0.0 W/m2 CLR
21:18 9.4 °F 7.9 °F 1018.8 in North 14.8 mph 14.8 mph 90 % 0.0 in 0.0 W/m2 CLR
21:23 9.4 °F 7.9 °F 1018.8 in NNW 9.7 mph 9.7 mph 90 % 0.0 in 0.0 W/m2 CLR
21:28 9.4 °F 7.9 °F 1018.8 in North 13.0 mph 13.0 mph 90 % 0.0 in 0.0 W/m2 CLR
21:33 9.4 °F 7.9 °F 1018.8 in NNW 14.8 mph 14.8 mph 90 % 0.0 in 0.0 W/m2 CLR
21:38 9.4 °F 7.9 °F 1018.8 in Calm     90 % 0.0 in 0.0 W/m2 CLR
21:43 9.4 °F 7.9 °F 1018.8 in Calm     90 % 0.0 in 0.0 W/m2 CLR
21:48 9.4 °F 7.9 °F 1018.5 in Calm     90 % 0.0 in 0.0 W/m2 CLR
21:53 9.4 °F 8.1 °F 1018.8 in Calm     91 % 0.0 in 0.0 W/m2 CLR
21:58 9.4 °F 8.1 °F 1018.8 in Calm     91 % 0.0 in 0.0 W/m2 CLR
22:03 9.4 °F 8.1 °F 1018.5 in Calm     91 % 0.0 in 0.0 W/m2 CLR
22:08 9.4 °F 8.1 °F 1018.5 in North 14.8 mph 14.8 mph 91 % 0.0 in 0.0 W/m2 CLR
22:13 9.4 °F 8.1 °F 1018.5 in NNW 16.1 mph 16.1 mph 91 % 0.0 in 0.0 W/m2 CLR
22:18 9.4 °F 8.1 °F 1018.5 in North 18.5 mph 18.5 mph 91 % 0.0 in 0.0 W/m2 CLR
22:23 9.4 °F 8.1 °F 1018.5 in North 14.8 mph 14.8 mph 91 % 0.3 in 0.0 W/m2 RA
22:28 9.4 °F 8.1 °F 1018.5 in North 18.5 mph 18.5 mph 91 % 0.5 in 0.0 W/m2 RA
22:33 8.9 °F 7.5 °F 1018.5 in North 18.5 mph 18.5 mph 91 % 1.0 in 0.0 W/m2 RA
22:38 8.9 °F 7.5 °F 1018.5 in North 13.0 mph 13.0 mph 91 % 1.5 in 0.0 W/m2 RA
22:43 8.9 °F 7.5 °F 1018.5 in North 20.4 mph 20.4 mph 91 % 2.0 in 0.0 W/m2 RA
22:48 8.9 °F 7.5 °F 1018.5 in NNW 16.7 mph 16.7 mph 91 % 2.3 in 0.0 W/m2 RA
22:53 8.9 °F 7.5 °F 1018.5 in NNW 16.7 mph 16.7 mph 91 % 2.5 in 0.0 W/m2 RA
22:58 8.9 °F 7.5 °F 1018.5 in North 16.7 mph 16.7 mph 91 % 2.8 in 0.0 W/m2 RA
23:03 8.9 °F 7.5 °F 1018.5 in North 13.0 mph 13.0 mph 91 % 3.0 in 0.0 W/m2 RA
23:08 8.9 °F 7.5 °F 1018.5 in North 16.7 mph 16.7 mph 91 % 3.3 in 0.0 W/m2 RA
23:13 8.9 °F 7.7 °F 1018.5 in North 16.7 mph 16.7 mph 92 % 3.3 in 0.0 W/m2 RA
23:18 8.9 °F 7.7 °F 1018.5 in NNW 16.7 mph 16.7 mph 92 % 3.6 in 0.0 W/m2 RA
23:23 8.9 °F 7.7 °F 1018.5 in North 14.8 mph 14.8 mph 92 % 3.6 in 0.0 W/m2 RA
23:28 8.9 °F 7.5 °F 1018.5 in NNW 18.5 mph 18.5 mph 91 % 3.3 in 0.0 W/m2 RA
23:33 8.9 °F 7.5 °F 1018.5 in NNW 13.0 mph 13.0 mph 91 % 3.0 in 0.0 W/m2
23:38 8.9 °F 7.5 °F 1018.5 in NNW 16.7 mph 16.7 mph 91 % 2.3 in 0.0 W/m2 CLR
23:43 8.9 °F 7.5 °F 1018.5 in North 17.7 mph 17.7 mph 91 % 2.0 in 0.0 W/m2 CLR
23:48 8.9 °F 7.5 °F 1018.8 in North 18.5 mph 18.5 mph 91 % 2.0 in 0.0 W/m2 RA
23:53 8.9 °F 7.5 °F 1018.8 in North 22.2 mph 22.2 mph 91 % 1.5 in 0.0 W/m2
23:58 8.9 °F 7.5 °F 1018.5 in North 24.1 mph 24.1 mph 91 % 1.5 in 0.0 W/m2 CLR
Lo Temps de Massalio
Compliments of Weather Underground - 1.25 mb